Time;durP1;ratioP1;P1;durP2;ratioP2;P2;SDS_P1;SDS_P2;PMS_P1;PMS_P2;Temp;Humidity;BMP_temperature;BMP_pressure;BME280_temperature;BME280_humidity;BME280_pressure;Samples;Min_cycle;Max_cycle;Signal;HPM_P1;HPM_P2
2023/10/27 00:02:03;;;;;;;;;;;;;;;;;;6343645;28;20277;-90
2023/10/27 00:05:03;;;;;;;;;;;;;;;;;;6330113;28;19912;-89
2023/10/27 00:08:03;;;;;;;;;;;;;;;;;;6340539;28;19916;-90
2023/10/27 00:11:06;;;;;;;;;;;;;;;;;;6347059;28;19911;-90
2023/10/27 00:14:06;;;;;;;;;;;;;;;;;;6322107;28;19957;-89
2023/10/27 00:17:06;;;;;;;;;;;;;;;;;;6328154;28;19911;-89
2023/10/27 00:20:06;;;;;;;;;;;;;;;;;;6328356;28;19922;-90
2023/10/27 00:23:07;;;;;;;;;;;;;;;;;;6327936;28;19908;-90
2023/10/27 00:26:07;;;;;;;;;;;;;;;;;;6323023;28;19960;-90
2023/10/27 00:29:07;;;;;;;;;;;;;;;;;;6340236;28;20006;-87
2023/10/27 00:32:07;;;;;;;;;;;;;;;;;;6325194;28;19907;-89
2023/10/27 00:35:07;;;;;;;;;;;;;;;;;;6319360;28;19931;-90
2023/10/27 00:38:07;;;;;;;;;;;;;;;;;;6344146;28;20491;-90
2023/10/27 00:41:07;;;;;;;;;;;;;;;;;;6323484;28;19915;-89
2023/10/27 00:44:08;;;;;;;;;;;;;;;;;;6346259;28;20006;-89
2023/10/27 00:47:08;;;;;;;;;;;;;;;;;;6344175;28;19919;-90
2023/10/27 00:50:08;;;;;;;;;;;;;;;;;;6327500;28;19961;-90
2023/10/27 00:53:08;;;;;;;;;;;;;;;;;;6327068;28;19923;-90
2023/10/27 00:56:08;;;;;;;;;;;;;;;;;;6346695;28;19911;-87
2023/10/27 00:59:08;;;;;;;;;;;;;;;;;;6322325;28;19993;-87
2023/10/27 01:02:09;;;;;;;;;;;;;;;;;;6322713;28;19923;-88
2023/10/27 01:05:09;;;;;;;;;;;;;;;;;;6324755;28;19923;-88
2023/10/27 01:08:10;;;;;;;;;;;;;;;;;;6328032;28;19918;-88
2023/10/27 01:11:10;;;;;;;;;;;;;;;;;;6327524;28;19915;-88
2023/10/27 01:14:10;;;;;;;;;;;;;;;;;;6324365;28;19922;-89
2023/10/27 01:17:10;;;;;;;;;;;;;;;;;;6321953;28;19920;-88
2023/10/27 01:20:10;;;;;;;;;;;;;;;;;;6324989;28;19927;-88
2023/10/27 01:23:10;;;;;;;;;;;;;;;;;;6320293;28;19907;-89
2023/10/27 01:26:10;;;;;;;;;;;;;;;;;;6326760;28;19912;-89
2023/10/27 01:29:10;;;;;;;;;;;;;;;;;;6326822;28;20472;-89
2023/10/27 01:32:11;;;;;;;;;;;;;;;;;;6327201;28;20293;-89
2023/10/27 01:35:11;;;;;;;;;;;;;;;;;;6341088;28;19918;-88
2023/10/27 01:38:11;;;;;;;;;;;;;;;;;;6325721;28;19918;-88
2023/10/27 01:41:11;;;;;;;;;;;;;;;;;;6326315;28;20285;-89
2023/10/27 01:44:13;;;;;;;;;;;;;;;;;;6328527;28;20049;-89
2023/10/27 01:47:13;;;;;;;;;;;;;;;;;;6344070;28;19908;-89
2023/10/27 01:50:13;;;;;;;;;;;;;;;;;;6325226;28;19911;-89
2023/10/27 01:53:13;;;;;;;;;;;;;;;;;;6313244;28;19944;-90
2023/10/27 01:56:13;;;;;;;;;;;;;;;;;;6317505;28;19913;-88
2023/10/27 01:59:13;;;;;;;;;;;;;;;;;;6312044;28;20377;-88
2023/10/27 02:02:15;;;;;;;;;;;;;;;;;;6316879;28;20047;-88
2023/10/27 02:05:15;;;;;;;;;;;;;;;;;;6317466;28;19912;-89
2023/10/27 02:08:16;;;;;;;;;;;;;;;;;;6318524;28;19912;-89
2023/10/27 02:11:16;;;;;;;;;;;;;;;;;;6318062;28;19919;-89
2023/10/27 02:14:17;;;;;;;;;;;;;;;;;;6318774;28;19962;-88
2023/10/27 02:17:17;;;;;;;;;;;;;;;;;;6318149;28;20057;-87
2023/10/27 02:20:17;;;;;;;;;;;;;;;;;;6323816;28;19916;-86
2023/10/27 02:23:17;;;;;;;;;;;;;;;;;;6318205;28;19912;-86
2023/10/27 02:26:17;;;;;;;;;;;;;;;;;;6315170;28;19934;-86
2023/10/27 02:29:18;;;;;;;;;;;;;;;;;;6317005;28;19965;-86
2023/10/27 02:32:18;;;;;;;;;;;;;;;;;;6317940;28;19908;-86
2023/10/27 02:35:18;;;;;;;;;;;;;;;;;;6317334;28;20007;-86
2023/10/27 02:38:18;;;;;;;;;;;;;;;;;;6316957;28;19998;-86
2023/10/27 02:41:18;;;;;;;;;;;;;;;;;;6317497;28;19916;-85
2023/10/27 02:44:18;;;;;;;;;;;;;;;;;;6320324;28;19943;-85
2023/10/27 02:47:18;;;;;;;;;;;;;;;;;;6316904;28;20382;-85
2023/10/27 02:50:19;;;;;;;;;;;;;;;;;;6317197;28;19919;-86
2023/10/27 02:53:19;;;;;;;;;;;;;;;;;;6311600;28;19924;-86
2023/10/27 02:56:19;;;;;;;;;;;;;;;;;;6315653;28;19947;-85
2023/10/27 02:59:19;;;;;;;;;;;;;;;;;;6317360;28;20005;-85
2023/10/27 03:02:19;;;;;;;;;;;;;;;;;;6314661;28;20053;-86
2023/10/27 03:05:19;;;;;;;;;;;;;;;;;;6317260;28;19913;-86
2023/10/27 03:08:19;;;;;;;;;;;;;;;;;;6312225;28;20045;-87
2023/10/27 03:11:19;;;;;;;;;;;;;;;;;;6318827;28;19969;-87
2023/10/27 03:14:20;;;;;;;;;;;;;;;;;;6315461;28;19916;-86
2023/10/27 03:17:20;;;;;;;;;;;;;;;;;;6316689;28;19924;-90
2023/10/27 03:20:20;;;;;;;;;;;;;;;;;;6317274;28;19927;-89
2023/10/27 03:23:20;;;;;;;;;;;;;;;;;;6332278;28;19911;-89
2023/10/27 03:26:20;;;;;;;;;;;;;;;;;;6313435;28;19913;-89
2023/10/27 03:29:20;;;;;;;;;;;;;;;;;;6318003;28;19935;-89
2023/10/27 03:32:22;;;;;;;;;;;;;;;;;;6321630;28;19916;-88
2023/10/27 03:35:22;;;;;;;;;;;;;;;;;;6315361;28;19912;-88
2023/10/27 03:38:22;;;;;;;;;;;;;;;;;;6322731;28;20291;-89
2023/10/27 03:41:22;;;;;;;;;;;;;;;;;;6328428;28;19916;-89
2023/10/27 03:44:22;;;;;;;;;;;;;;;;;;6331466;28;20006;-89
2023/10/27 03:47:22;;;;;;;;;;;;;;;;;;6332500;28;19924;-89
2023/10/27 03:50:22;;;;;;;;;;;;;;;;;;6332470;28;19911;-89
2023/10/27 03:53:22;;;;;;;;;;;;;;;;;;6330380;28;19923;-89
2023/10/27 03:56:23;;;;;;;;;;;;;;;;;;6330975;28;19926;-89
2023/10/27 03:59:23;;;;;;;;;;;;;;;;;;6331128;28;20011;-88
2023/10/27 04:02:23;;;;;;;;;;;;;;;;;;6330627;28;19912;-89
2023/10/27 04:05:23;;;;;;;;;;;;;;;;;;6330748;28;19916;-89
2023/10/27 04:08:23;;;;;;;;;;;;;;;;;;6330398;28;19912;-88
2023/10/27 04:11:23;;;;;;;;;;;;;;;;;;6331724;28;19983;-89
2023/10/27 04:14:23;;;;;;;;;;;;;;;;;;6319390;28;19970;-89
2023/10/27 04:17:23;;;;;;;;;;;;;;;;;;6332897;28;19913;-89
2023/10/27 04:20:24;;;;;;;;;;;;;;;;;;6326163;28;19923;-89
2023/10/27 04:23:24;;;;;;;;;;;;;;;;;;6319537;28;19912;-89
2023/10/27 04:26:24;;;;;;;;;;;;;;;;;;6319878;28;19919;-89
2023/10/27 04:29:24;;;;;;;;;;;;;;;;;;6319148;28;19912;-89
2023/10/27 04:32:26;;;;;;;;;;;;;;;;;;6311120;28;19965;-89
2023/10/27 04:35:26;;;;;;;;;;;;;;;;;;6320489;28;19919;-89
2023/10/27 04:38:27;;;;;;;;;;;;;;;;;;6317875;28;20373;-89
2023/10/27 04:41:30;;;;;;;;;;;;;;;;;;6312007;28;19920;-89
2023/10/27 04:44:30;;;;;;;;;;;;;;;;;;6314993;28;19969;-89
2023/10/27 04:47:30;;;;;;;;;;;;;;;;;;6319305;28;20606;-89
2023/10/27 04:50:35;;;;;;;;;;;;;;;;;;6311675;28;19999;-89
2023/10/27 04:53:36;;;;;;;;;;;;;;;;;;6316341;28;19931;-89
2023/10/27 04:56:36;;;;;;;;;;;;;;;;;;6312477;28;19912;-89
2023/10/27 04:59:36;;;;;;;;;;;;;;;;;;6318711;28;19935;-90
2023/10/27 05:02:36;;;;;;;;;;;;;;;;;;6317977;28;19908;-90
2023/10/27 05:05:36;;;;;;;;;;;;;;;;;;6317989;28;20362;-90
2023/10/27 05:08:36;;;;;;;;;;;;;;;;;;6317063;28;19922;-90
2023/10/27 05:11:36;;;;;;;;;;;;;;;;;;6318338;28;20048;-88
2023/10/27 05:14:37;;;;;;;;;;;;;;;;;;6315731;28;20423;-90
2023/10/27 05:17:37;;;;;;;;;;;;;;;;;;6323147;28;20367;-89
2023/10/27 05:20:38;;;;;;;;;;;;;;;;;;6319549;28;19916;-89
2023/10/27 05:23:38;;;;;;;;;;;;;;;;;;6317575;28;19916;-89
2023/10/27 05:26:38;;;;;;;;;;;;;;;;;;6316583;28;20011;-90
2023/10/27 05:29:38;;;;;;;;;;;;;;;;;;6315268;28;20062;-89
2023/10/27 05:32:38;;;;;;;;;;;;;;;;;;6316750;28;20006;-91
2023/10/27 05:35:38;;;;;;;;;;;;;;;;;;6312829;28;19912;-90
2023/10/27 05:38:38;;;;;;;;;;;;;;;;;;6310736;28;19917;-90
2023/10/27 05:41:38;;;;;;;;;;;;;;;;;;6310598;28;19916;-90
2023/10/27 05:44:41;;;;;;;;;;;;;;;;;;6312941;28;19916;-89
2023/10/27 05:47:41;;;;;;;;;;;;;;;;;;6310246;28;19961;-86
2023/10/27 05:50:41;;;;;;;;;;;;;;;;;;6314586;28;20439;-86
2023/10/27 05:53:41;;;;;;;;;;;;;;;;;;6315322;28;19931;-86
2023/10/27 05:56:41;;;;;;;;;;;;;;;;;;6297927;28;19982;-86
2023/10/27 05:59:42;;;;;;;;;;;;;;;;;;6310354;28;19964;-86
2023/10/27 06:02:42;;;;;;;;;;;;;;;;;;6307574;28;20015;-86
2023/10/27 06:05:42;;;;;;;;;;;;;;;;;;6310270;28;20416;-86
2023/10/27 06:08:44;;;;;;;;;;;;;;;;;;6310637;28;19970;-86
2023/10/27 06:11:44;;;;;;;;;;;;;;;;;;6316481;28;19919;-86
2023/10/27 06:14:44;;;;;;;;;;;;;;;;;;6315837;28;19912;-87
2023/10/27 06:17:44;;;;;;;;;;;;;;;;;;6312557;28;19912;-86
2023/10/27 06:20:44;;;;;;;;;;;;;;;;;;6316789;28;19916;-86
2023/10/27 06:23:44;;;;;;;;;;;;;;;;;;6316723;28;20564;-87
2023/10/27 06:26:45;;;;;;;;;;;;;;;;;;6314375;28;19916;-86
2023/10/27 06:29:45;;;;;;;;;;;;;;;;;;6311059;28;19916;-87
2023/10/27 06:32:45;;;;;;;;;;;;;;;;;;6305408;28;20296;-86
2023/10/27 06:35:45;;;;;;;;;;;;;;;;;;6306316;28;20386;-86
2023/10/27 06:38:45;;;;;;;;;;;;;;;;;;6307855;28;19912;-87
2023/10/27 06:41:48;;;;;;;;;;;;;;;;;;6306937;28;19927;-86
2023/10/27 06:44:48;;;;;;;;;;;;;;;;;;6315870;28;19920;-87
2023/10/27 06:47:48;;;;;;;;;;;;;;;;;;6315681;28;19923;-86
2023/10/27 06:50:48;;;;;;;;;;;;;;;;;;6314941;28;19938;-86
2023/10/27 06:53:48;;;;;;;;;;;;;;;;;;6307890;28;20374;-87
2023/10/27 06:56:50;;;;;;;;;;;;;;;;;;6311645;28;19967;-87
2023/10/27 06:59:51;;;;;;;;;;;;;;;;;;6313290;28;20007;-90
2023/10/27 07:02:51;;;;;;;;;;;;;;;;;;6313775;28;19908;-89
2023/10/27 07:05:51;;;;;;;;;;;;;;;;;;6315605;28;20480;-89
2023/10/27 07:08:51;;;;;;;;;;;;;;;;;;6315591;28;19908;-89
2023/10/27 07:11:52;;;;;;;;;;;;;;;;;;6314918;28;19916;-89
2023/10/27 07:14:52;;;;;;;;;;;;;;;;;;6319038;28;19919;-89
2023/10/27 07:17:52;;;;;;;;;;;;;;;;;;6323860;28;19919;-89
2023/10/27 07:20:53;;;;;;;;;;;;;;;;;;6318055;28;19924;-89
2023/10/27 07:23:53;;;;;;;;;;;;;;;;;;6319894;28;19962;-89
2023/10/27 07:26:53;;;;;;;;;;;;;;;;;;6321133;28;19916;-89
2023/10/27 07:29:53;;;;;;;;;;;;;;;;;;6322101;28;19919;-89
2023/10/27 07:32:53;;;;;;;;;;;;;;;;;;6314448;28;19912;-89
2023/10/27 07:35:54;;;;;;;;;;;;;;;;;;6320657;28;20726;-90
2023/10/27 07:38:54;;;;;;;;;;;;;;;;;;6320934;28;19920;-89
2023/10/27 07:41:54;;;;;;;;;;;;;;;;;;6320047;28;19920;-90
2023/10/27 07:44:54;;;;;;;;;;;;;;;;;;6322487;28;19920;-89
2023/10/27 07:47:54;;;;;;;;;;;;;;;;;;6318214;28;20441;-89
2023/10/27 07:50:57;;;;;;;;;;;;;;;;;;6318881;28;20046;-90
2023/10/27 07:53:57;;;;;;;;;;;;;;;;;;6320152;28;19931;-90
2023/10/27 07:56:59;;;;;;;;;;;;;;;;;;6320380;28;19980;-89
2023/10/27 07:59:59;;;;;;;;;;;;;;;;;;6317646;28;19920;-92
2023/10/27 08:02:59;;;;;;;;;;;;;;;;;;6320825;28;19916;-90
2023/10/27 08:06:00;;;;;;;;;;;;;;;;;;6313760;28;19920;-90
2023/10/27 08:09:00;;;;;;;;;;;;;;;;;;6319478;28;19966;-90
2023/10/27 08:12:00;;;;;;;;;;;;;;;;;;6317232;28;19959;-89
2023/10/27 08:15:04;;;;;;;;;;;;;;;;;;6319856;28;19963;-89
2023/10/27 08:18:05;;;;;;;;;;;;;;;;;;6311198;28;19912;-89
2023/10/27 08:21:05;;;;;;;;;;;;;;;;;;6316785;28;19916;-89
2023/10/27 08:24:06;;;;;;;;;;;;;;;;;;6315602;28;19916;-90
2023/10/27 08:27:06;;;;;;;;;;;;;;;;;;6320251;28;19916;-89
2023/10/27 08:30:06;;;;;;;;;;;;;;;;;;6322048;28;19943;-89
2023/10/27 08:33:07;;;;;;;;;;;;;;;;;;6314856;28;20377;-90
2023/10/27 08:36:08;;;;;;;;;;;;;;;;;;6321310;28;19916;-89
2023/10/27 08:39:08;;;;;;;;;;;;;;;;;;6321750;28;19999;-89
2023/10/27 08:42:10;;;;;;;;;;;;;;;;;;6316181;28;20346;-89
2023/10/27 08:45:13;;;;;;;;;;;;;;;;;;6315948;28;19927;-90
2023/10/27 08:48:16;;;;;;;;;;;;;;;;;;6316733;28;19916;-89
2023/10/27 08:51:16;;;;;;;;;;;;;;;;;;6314557;28;19947;-89
2023/10/27 08:54:16;;;;;;;;;;;;;;;;;;6319852;28;19924;-90
2023/10/27 08:57:17;;;;;;;;;;;;;;;;;;6315872;28;19938;-88
2023/10/27 09:00:17;;;;;;;;;;;;;;;;;;6320605;28;19999;-89
2023/10/27 09:03:17;;;;;;;;;;;;;;;;;;6320822;28;19916;-89
2023/10/27 09:06:17;;;;;;;;;;;;;;;;;;6314942;28;20446;-89
2023/10/27 09:09:18;;;;;;;;;;;;;;;;;;6317118;28;19916;-85
2023/10/27 09:12:18;;;;;;;;;;;;;;;;;;6317571;28;19982;-85
2023/10/27 09:15:19;;;;;;;;;;;;;;;;;;6318437;28;20353;-86
2023/10/27 09:18:19;;;;;;;;;;;;;;;;;;6317689;28;19997;-89
2023/10/27 09:21:19;;;;;;;;;;;;;;;;;;6323212;28;19915;-88
2023/10/27 09:24:19;;;;;;;;;;;;;;;;;;6313231;28;19924;-90
2023/10/27 09:27:21;;;;;;;;;;;;;;;;;;6317858;28;19958;-89
2023/10/27 09:30:24;;;;;;;;;;;;;;;;;;6316346;28;19999;-90
2023/10/27 09:33:27;;;;;;;;;;;;;;;;;;6317480;28;19916;-89
2023/10/27 09:36:30;;;;;;;;;;;;;;;;;;6315723;28;20396;-90
2023/10/27 09:39:31;;;;;;;;;;;;;;;;;;6311651;28;19920;-89
2023/10/27 09:42:31;;;;;;;;;;;;;;;;;;6315669;28;19962;-89
2023/10/27 09:45:31;;;;;;;;;;;;;;;;;;6318292;28;20295;-89
2023/10/27 09:48:32;;;;;;;;;;;;;;;;;;6317672;28;19912;-89
2023/10/27 09:51:32;;;;;;;;;;;;;;;;;;6317699;28;20323;-90
2023/10/27 09:54:33;;;;;;;;;;;;;;;;;;6337651;28;19930;-91
2023/10/27 09:57:40;;;;;;;;;;;;;;;;;;6299374;28;19966;-80
2023/10/27 10:00:41;;;;;;;;;;;;;;;;;;6275241;28;20448;-80
2023/10/27 10:03:41;;;;;;;;;;;;;;;;;;6279045;28;19917;-80
2023/10/27 10:06:41;;;;;;;;;;;;;;;;;;6269444;28;19946;-80
2023/10/27 10:09:42;;;;;;;;;;;;;;;;;;6272597;28;19917;-79
2023/10/27 10:12:42;;;;;;;;;;;;;;;;;;6283208;28;19909;-79
2023/10/27 10:15:43;;;;;;;;;;;;;;;;;;6284940;28;19924;-79
2023/10/27 10:18:44;;;;;;;;;;;;;;;;;;6283695;28;19956;-79
2023/10/27 10:21:45;;;;;;;;;;;;;;;;;;6276823;28;19912;-79
2023/10/27 10:24:45;;;;;;;;;;;;;;;;;;6280664;28;19923;-79
2023/10/27 10:27:46;;;;;;;;;;;;;;;;;;6278788;28;19949;-79
2023/10/27 10:30:46;;;;;;;;;;;;;;;;;;6268036;28;20013;-79
2023/10/27 10:33:48;;;;;;;;;;;;;;;;;;6270988;28;19924;-79
2023/10/27 10:36:48;;;;;;;;;;;;;;;;;;6282228;28;19920;-79
2023/10/27 10:39:48;;;;;;;;;;;;;;;;;;6264781;28;19913;-78
2023/10/27 10:42:48;;;;;;;;;;;;;;;;;;6273586;28;20330;-78
2023/10/27 10:45:50;;;;;;;;;;;;;;;;;;6271015;28;19913;-79
2023/10/27 10:48:52;;;;;;;;;;;;;;;;;;6280031;28;19917;-78
2023/10/27 10:51:52;;;;;;;;;;;;;;;;;;6275242;28;20283;-78
2023/10/27 10:54:52;;;;;;;;;;;;;;;;;;6282481;28;19920;-78
2023/10/27 10:57:52;;;;;;;;;;;;;;;;;;6295352;28;19913;-79
2023/10/27 11:00:52;;;;;;;;;;;;;;;;;;6303110;28;19912;-79
2023/10/27 11:03:53;;;;;;;;;;;;;;;;;;6311067;28;20295;-79
2023/10/27 11:06:53;;;;;;;;;;;;;;;;;;6300442;28;19912;-80
2023/10/27 11:09:53;;;;;;;;;;;;;;;;;;6291972;28;19917;-80
2023/10/27 11:12:53;;;;;;;;;;;;;;;;;;6291741;28;19919;-80
2023/10/27 11:15:53;;;;;;;;;;;;;;;;;;6282718;28;19916;-80
2023/10/27 11:18:53;;;;;;;;;;;;;;;;;;6283669;28;19912;-79
2023/10/27 11:21:54;;;;;;;;;;;;;;;;;;6279831;28;19928;-80
2023/10/27 11:24:54;;;;;;;;;;;;;;;;;;6283988;28;19921;-79
2023/10/27 11:27:54;;;;;;;;;;;;;;;;;;6277244;28;19912;-79
2023/10/27 11:30:54;;;;;;;;;;;;;;;;;;6283923;28;19916;-79
2023/10/27 11:33:54;;;;;;;;;;;;;;;;;;6279074;28;19936;-79
2023/10/27 11:36:54;;;;;;;;;;;;;;;;;;6281736;28;20023;-79
2023/10/27 11:39:57;;;;;;;;;;;;;;;;;;6289990;28;20043;-79
2023/10/27 11:42:57;;;;;;;;;;;;;;;;;;6271165;28;20331;-79
2023/10/27 11:45:57;;;;;;;;;;;;;;;;;;6275357;28;19928;-79
2023/10/27 11:48:57;;;;;;;;;;;;;;;;;;6276440;28;20003;-79
2023/10/27 11:51:58;;;;;;;;;;;;;;;;;;6280266;28;20021;-79
2023/10/27 11:54:58;;;;;;;;;;;;;;;;;;6288699;28;19973;-79
2023/10/27 11:57:58;;;;;;;;;;;;;;;;;;6280454;28;19969;-79
2023/10/27 12:00:58;;;;;;;;;;;;;;;;;;6282914;28;19917;-78
2023/10/27 12:03:58;;;;;;;;;;;;;;;;;;6282134;28;20013;-78
2023/10/27 12:06:58;;;;;;;;;;;;;;;;;;6285543;28;19920;-77
2023/10/27 12:09:58;;;;;;;;;;;;;;;;;;6274036;28;19919;-77
2023/10/27 12:12:58;;;;;;;;;;;;;;;;;;6274814;28;19917;-77
2023/10/27 12:15:58;;;;;;;;;;;;;;;;;;6281618;28;20049;-78
2023/10/27 12:19:00;;;;;;;;;;;;;;;;;;6281234;28;19998;-77
2023/10/27 12:22:01;;;;;;;;;;;;;;;;;;6273818;28;19972;-77
2023/10/27 12:25:01;;;;;;;;;;;;;;;;;;6280214;28;19916;-77
2023/10/27 12:28:01;;;;;;;;;;;;;;;;;;6275311;28;19992;-77
2023/10/27 12:31:01;;;;;;;;;;;;;;;;;;6283527;28;20322;-77
2023/10/27 12:34:03;;;;;;;;;;;;;;;;;;6283335;28;20229;-77
2023/10/27 12:37:03;;;;;;;;;;;;;;;;;;6275415;28;19920;-77
2023/10/27 12:40:06;;;;;;;;;;;;;;;;;;6280241;28;19939;-78
2023/10/27 12:43:06;;;;;;;;;;;;;;;;;;6277149;28;19995;-78
2023/10/27 12:46:06;;;;;;;;;;;;;;;;;;6290459;28;19924;-77
2023/10/27 12:49:07;;;;;;;;;;;;;;;;;;6295580;28;20439;-77
2023/10/27 12:52:07;;;;;;;;;;;;;;;;;;6286658;28;19959;-78
2023/10/27 12:55:07;;;;;;;;;;;;;;;;;;6284728;28;19925;-77
2023/10/27 12:58:08;;;;;;;;;;;;;;;;;;6284893;28;20386;-76
2023/10/27 13:01:09;;;;;;;;;;;;;;;;;;6281763;28;19912;-76
2023/10/27 13:04:09;;;;;;;;;;;;;;;;;;6278842;28;20256;-77
2023/10/27 13:07:11;;;;;;;;;;;;;;;;;;6275077;28;19920;-78
2023/10/27 13:10:11;;;;;;;;;;;;;;;;;;6280556;28;20401;-78
2023/10/27 13:13:13;;;;;;;;;;;;;;;;;;6278210;28;19920;-77
2023/10/27 13:16:13;;;;;;;;;;;;;;;;;;6286512;28;19962;-77
2023/10/27 13:19:13;;;;;;;;;;;;;;;;;;6286152;28;19916;-77
2023/10/27 13:22:13;;;;;;;;;;;;;;;;;;6275973;28;19987;-77
2023/10/27 13:25:14;;;;;;;;;;;;;;;;;;6287036;28;19912;-77
2023/10/27 13:28:14;;;;;;;;;;;;;;;;;;6278826;28;19917;-77
2023/10/27 13:31:14;;;;;;;;;;;;;;;;;;6279370;28;20474;-76
2023/10/27 13:34:15;;;;;;;;;;;;;;;;;;6272171;28;19960;-76
2023/10/27 13:37:15;;;;;;;;;;;;;;;;;;6283165;28;19920;-76
2023/10/27 13:40:18;;;;;;;;;;;;;;;;;;6285288;28;19951;-76
2023/10/27 13:43:20;;;;;;;;;;;;;;;;;;6284648;28;20105;-76
2023/10/27 13:46:21;;;;;;;;;;;;;;;;;;6276245;28;19912;-76
2023/10/27 13:49:22;;;;;;;;;;;;;;;;;;6279934;28;19919;-76
2023/10/27 13:52:22;;;;;;;;;;;;;;;;;;6276368;28;20063;-76
2023/10/27 13:55:23;;;;;;;;;;;;;;;;;;6278334;28;19927;-77
2023/10/27 13:58:23;;;;;;;;;;;;;;;;;;6278286;28;19932;-74
2023/10/27 14:01:23;;;;;;;;;;;;;;;;;;6280714;28;19916;-77
2023/10/27 14:04:23;;;;;;;;;;;;;;;;;;6286539;28;19920;-78
2023/10/27 14:07:23;;;;;;;;;;;;;;;;;;6278032;28;19964;-77
2023/10/27 14:10:23;;;;;;;;;;;;;;;;;;6279074;28;19960;-79
2023/10/27 14:13:24;;;;;;;;;;;;;;;;;;6281285;28;19999;-78
2023/10/27 14:16:25;;;;;;;;;;;;;;;;;;6289050;28;19916;-78
2023/10/27 14:19:27;;;;;;;;;;;;;;;;;;6282384;28;19920;-78
2023/10/27 14:22:30;;;;;;;;;;;;;;;;;;6276008;28;19921;-78
2023/10/27 14:25:31;;;;;;;;;;;;;;;;;;6282377;28;19924;-78
2023/10/27 14:28:33;;;;;;;;;;;;;;;;;;6276700;28;20279;-78
2023/10/27 14:31:33;;;;;;;;;;;;;;;;;;6287124;28;20308;-77
2023/10/27 14:34:33;;;;;;;;;;;;;;;;;;6286682;28;20385;-77
2023/10/27 14:37:34;;;;;;;;;;;;;;;;;;6277766;28;20041;-78
2023/10/27 14:40:34;;;;;;;;;;;;;;;;;;6289114;28;20003;-79
2023/10/27 14:43:34;;;;;;;;;;;;;;;;;;6288451;28;19908;-78
2023/10/27 14:46:34;;;;;;;;;;;;;;;;;;6287575;28;19999;-79
2023/10/27 14:49:38;;;;;;;;;;;;;;;;;;6273622;28;20271;-79
2023/10/27 14:52:38;;;;;;;;;;;;;;;;;;6274426;28;20454;-79
2023/10/27 14:55:38;;;;;;;;;;;;;;;;;;6271526;28;20037;-79
2023/10/27 14:58:38;;;;;;;;;;;;;;;;;;6285484;28;20369;-79
2023/10/27 15:01:39;;;;;;;;;;;;;;;;;;6283973;28;19917;-78
2023/10/27 15:04:39;;;;;;;;;;;;;;;;;;6280050;28;19967;-79
2023/10/27 15:07:39;;;;;;;;;;;;;;;;;;6288372;28;19919;-79
2023/10/27 15:10:40;;;;;;;;;;;;;;;;;;6283351;28;20062;-80
2023/10/27 15:13:40;;;;;;;;;;;;;;;;;;6271160;28;19959;-79
2023/10/27 15:16:42;;;;;;;;;;;;;;;;;;6288468;28;19927;-80
2023/10/27 15:19:42;;;;;;;;;;;;;;;;;;6277398;28;20397;-79
2023/10/27 15:22:42;;;;;;;;;;;;;;;;;;6292763;28;19942;-79
2023/10/27 15:25:43;;;;;;;;;;;;;;;;;;6282153;28;19923;-79
2023/10/27 15:28:45;;;;;;;;;;;;;;;;;;6288614;28;19955;-79
2023/10/27 15:31:45;;;;;;;;;;;;;;;;;;6287046;28;19920;-79
2023/10/27 15:34:45;;;;;;;;;;;;;;;;;;6277799;28;20329;-80
2023/10/27 15:37:45;;;;;;;;;;;;;;;;;;6283144;28;19972;-80
2023/10/27 15:40:45;;;;;;;;;;;;;;;;;;6287258;28;19921;-79
2023/10/27 15:43:45;;;;;;;;;;;;;;;;;;6287902;28;19916;-79
2023/10/27 15:46:47;;;;;;;;;;;;;;;;;;6285789;28;20469;-80
2023/10/27 15:49:47;;;;;;;;;;;;;;;;;;6276850;28;19960;-81
2023/10/27 15:52:47;;;;;;;;;;;;;;;;;;6276194;28;20302;-80
2023/10/27 15:55:47;;;;;;;;;;;;;;;;;;6287636;28;19928;-79
2023/10/27 15:58:47;;;;;;;;;;;;;;;;;;6292044;28;19916;-79
2023/10/27 16:01:47;;;;;;;;;;;;;;;;;;6279532;28;19912;-79
2023/10/27 16:04:48;;;;;;;;;;;;;;;;;;6284170;28;20037;-79
2023/10/27 16:07:48;;;;;;;;;;;;;;;;;;6291385;28;19922;-81
2023/10/27 16:10:48;;;;;;;;;;;;;;;;;;6288646;28;19919;-80
2023/10/27 16:13:48;;;;;;;;;;;;;;;;;;6272267;28;20388;-80
2023/10/27 16:16:49;;;;;;;;;;;;;;;;;;6281453;28;20411;-80
2023/10/27 16:19:49;;;;;;;;;;;;;;;;;;6286995;28;19913;-80
2023/10/27 16:22:49;;;;;;;;;;;;;;;;;;6289275;28;19923;-79
2023/10/27 16:25:50;;;;;;;;;;;;;;;;;;6290454;28;19920;-79
2023/10/27 16:28:50;;;;;;;;;;;;;;;;;;6278421;28;19995;-80
2023/10/27 16:31:50;;;;;;;;;;;;;;;;;;6276546;28;20318;-79
2023/10/27 16:34:50;;;;;;;;;;;;;;;;;;6285691;28;19916;-79
2023/10/27 16:37:51;;;;;;;;;;;;;;;;;;6287358;28;19990;-79
2023/10/27 16:40:51;;;;;;;;;;;;;;;;;;6284737;28;19917;-79
2023/10/27 16:43:52;;;;;;;;;;;;;;;;;;6290551;28;19915;-79
2023/10/27 16:46:52;;;;;;;;;;;;;;;;;;6280225;28;19924;-79
2023/10/27 16:49:54;;;;;;;;;;;;;;;;;;6276302;28;20383;-79
2023/10/27 16:52:54;;;;;;;;;;;;;;;;;;6279747;28;20453;-78
2023/10/27 16:55:54;;;;;;;;;;;;;;;;;;6281027;28;19928;-79
2023/10/27 16:58:57;;;;;;;;;;;;;;;;;;6278127;28;19923;-79
2023/10/27 17:01:57;;;;;;;;;;;;;;;;;;6283507;28;20760;-78
2023/10/27 17:04:57;;;;;;;;;;;;;;;;;;6287367;28;19912;-78
2023/10/27 17:07:57;;;;;;;;;;;;;;;;;;6281764;28;19975;-78
2023/10/27 17:10:57;;;;;;;;;;;;;;;;;;6287969;28;20755;-78
2023/10/27 17:13:57;;;;;;;;;;;;;;;;;;6270002;28;19921;-78
2023/10/27 17:16:58;;;;;;;;;;;;;;;;;;6272955;28;20570;-78
2023/10/27 17:19:58;;;;;;;;;;;;;;;;;;6275550;28;20087;-80
2023/10/27 17:22:58;;;;;;;;;;;;;;;;;;6282755;28;19920;-79
2023/10/27 17:25:58;;;;;;;;;;;;;;;;;;6272275;28;19917;-79
2023/10/27 17:28:58;;;;;;;;;;;;;;;;;;6279155;28;20262;-79
2023/10/27 17:31:58;;;;;;;;;;;;;;;;;;6272306;28;19920;-79
2023/10/27 17:34:59;;;;;;;;;;;;;;;;;;6281504;28;19912;-80
2023/10/27 17:38:00;;;;;;;;;;;;;;;;;;6266343;28;20400;-79
2023/10/27 17:41:00;;;;;;;;;;;;;;;;;;6272656;28;19913;-79
2023/10/27 17:44:00;;;;;;;;;;;;;;;;;;6274825;28;19940;-79
2023/10/27 17:47:00;;;;;;;;;;;;;;;;;;6281224;28;19919;-79
2023/10/27 17:50:00;;;;;;;;;;;;;;;;;;6283297;28;20031;-79
2023/10/27 17:53:03;;;;;;;;;;;;;;;;;;6285748;28;19923;-78
2023/10/27 17:56:03;;;;;;;;;;;;;;;;;;6279462;28;20275;-78
2023/10/27 17:59:03;;;;;;;;;;;;;;;;;;6284235;28;19909;-79
2023/10/27 18:02:03;;;;;;;;;;;;;;;;;;6277174;28;19963;-79
2023/10/27 18:05:04;;;;;;;;;;;;;;;;;;6284241;28;19916;-79
2023/10/27 18:08:04;;;;;;;;;;;;;;;;;;6288125;28;20500;-79
2023/10/27 18:11:08;;;;;;;;;;;;;;;;;;6281258;28;19942;-79
2023/10/27 18:14:08;;;;;;;;;;;;;;;;;;6279471;28;20011;-79
2023/10/27 18:17:08;;;;;;;;;;;;;;;;;;6283405;28;19924;-78
2023/10/27 18:20:08;;;;;;;;;;;;;;;;;;6287943;28;19916;-79
2023/10/27 18:23:08;;;;;;;;;;;;;;;;;;6281863;28;19919;-81
2023/10/27 18:26:09;;;;;;;;;;;;;;;;;;6279294;28;20360;-79
2023/10/27 18:29:09;;;;;;;;;;;;;;;;;;6285161;28;19920;-80
2023/10/27 18:32:09;;;;;;;;;;;;;;;;;;6287913;28;19913;-78
2023/10/27 18:35:11;;;;;;;;;;;;;;;;;;6275058;28;20357;-78
2023/10/27 18:38:13;;;;;;;;;;;;;;;;;;6283563;28;19920;-80
2023/10/27 18:41:14;;;;;;;;;;;;;;;;;;6286481;28;20011;-78
2023/10/27 18:44:14;;;;;;;;;;;;;;;;;;6294686;28;19920;-79
2023/10/27 18:47:14;;;;;;;;;;;;;;;;;;6295789;28;19908;-79
2023/10/27 18:50:14;;;;;;;;;;;;;;;;;;6290340;28;19951;-80
2023/10/27 18:53:14;;;;;;;;;;;;;;;;;;6283759;28;20293;-79
2023/10/27 18:56:15;;;;;;;;;;;;;;;;;;6276606;28;19921;-80
2023/10/27 18:59:16;;;;;;;;;;;;;;;;;;6284375;28;19917;-79
2023/10/27 19:02:16;;;;;;;;;;;;;;;;;;6287331;28;19919;-79
2023/10/27 19:05:16;;;;;;;;;;;;;;;;;;6288062;28;19916;-79
2023/10/27 19:08:16;;;;;;;;;;;;;;;;;;6279747;28;19916;-79
2023/10/27 19:11:17;;;;;;;;;;;;;;;;;;6276612;28;19920;-79
2023/10/27 19:14:17;;;;;;;;;;;;;;;;;;6279441;28;20103;-80
2023/10/27 19:17:17;;;;;;;;;;;;;;;;;;6286003;28;19921;-79
2023/10/27 19:20:17;;;;;;;;;;;;;;;;;;6280361;28;19928;-79
2023/10/27 19:23:17;;;;;;;;;;;;;;;;;;6273441;28;19916;-80
2023/10/27 19:26:18;;;;;;;;;;;;;;;;;;6273267;28;20371;-80
2023/10/27 19:29:18;;;;;;;;;;;;;;;;;;6274823;28;19939;-78
2023/10/27 19:32:19;;;;;;;;;;;;;;;;;;6277700;28;19944;-79
2023/10/27 19:35:19;;;;;;;;;;;;;;;;;;6287343;28;19912;-79
2023/10/27 19:38:19;;;;;;;;;;;;;;;;;;6283426;28;19934;-78
2023/10/27 19:41:25;;;;;;;;;;;;;;;;;;6289052;28;19958;-78
2023/10/27 19:44:25;;;;;;;;;;;;;;;;;;6280072;28;20201;-78
2023/10/27 19:47:25;;;;;;;;;;;;;;;;;;6282434;28;20596;-78
2023/10/27 19:50:25;;;;;;;;;;;;;;;;;;6278872;28;19967;-78
2023/10/27 19:53:25;;;;;;;;;;;;;;;;;;6283859;28;19917;-77
2023/10/27 19:56:25;;;;;;;;;;;;;;;;;;6271189;28;19964;-79
2023/10/27 19:59:25;;;;;;;;;;;;;;;;;;6274558;28;20412;-78
2023/10/27 20:02:26;;;;;;;;;;;;;;;;;;6281404;28;20179;-79
2023/10/27 20:05:26;;;;;;;;;;;;;;;;;;6271156;28;19913;-79
2023/10/27 20:08:31;;;;;;;;;;;;;;;;;;6284113;28;19963;-79
2023/10/27 20:11:31;;;;;;;;;;;;;;;;;;6283690;28;19975;-79
2023/10/27 20:14:31;;;;;;;;;;;;;;;;;;6276583;28;20410;-80
2023/10/27 20:17:31;;;;;;;;;;;;;;;;;;6284467;28;19920;-81
2023/10/27 20:20:31;;;;;;;;;;;;;;;;;;6275844;28;19917;-81
2023/10/27 20:23:32;;;;;;;;;;;;;;;;;;6290802;28;19935;-81
2023/10/27 20:26:32;;;;;;;;;;;;;;;;;;6291384;28;20038;-81
2023/10/27 20:29:33;;;;;;;;;;;;;;;;;;6286962;28;19923;-80
2023/10/27 20:32:33;;;;;;;;;;;;;;;;;;6291649;28;19912;-79